sensor_id;sensor_type;location;lat;lon;timestamp;temperature;humidity
21772;DHT22;11047;47.904;8.110;2022-11-02T00:01:18;9.60;99.90
21772;DHT22;11047;47.904;8.110;2022-11-02T00:03:46;9.70;99.90
21772;DHT22;11047;47.904;8.110;2022-11-02T00:06:14;9.70;99.90
21772;DHT22;11047;47.904;8.110;2022-11-02T00:08:41;9.80;99.90
21772;DHT22;11047;47.904;8.110;2022-11-02T00:11:08;9.80;99.90
21772;DHT22;11047;47.904;8.110;2022-11-02T00:13:35;9.90;99.90
21772;DHT22;11047;47.904;8.110;2022-11-02T00:16:03;9.90;99.90
21772;DHT22;11047;47.904;8.110;2022-11-02T00:18:32;9.90;99.90
21772;DHT22;11047;47.904;8.110;2022-11-02T00:21:00;9.90;99.90
21772;DHT22;11047;47.904;8.110;2022-11-02T00:23:29;9.90;99.90
21772;DHT22;11047;47.904;8.110;2022-11-02T00:25:56;9.90;99.90
21772;DHT22;11047;47.904;8.110;2022-11-02T00:28:24;9.90;99.90
21772;DHT22;11047;47.904;8.110;2022-11-02T00:30:52;9.90;99.90
21772;DHT22;11047;47.904;8.110;2022-11-02T00:33:19;10.00;99.90
21772;DHT22;11047;47.904;8.110;2022-11-02T00:35:46;9.90;99.90
21772;DHT22;11047;47.904;8.110;2022-11-02T00:38:13;9.90;99.90
21772;DHT22;11047;47.904;8.110;2022-11-02T00:40:41;9.90;99.90
21772;DHT22;11047;47.904;8.110;2022-11-02T00:43:08;10.00;99.90
21772;DHT22;11047;47.904;8.110;2022-11-02T00:45:35;10.00;99.90
21772;DHT22;11047;47.904;8.110;2022-11-02T00:48:02;9.90;99.90
21772;DHT22;11047;47.904;8.110;2022-11-02T00:50:29;10.00;99.90
21772;DHT22;11047;47.904;8.110;2022-11-02T00:52:56;10.00;99.90
21772;DHT22;11047;47.904;8.110;2022-11-02T00:55:23;10.00;99.90
21772;DHT22;11047;47.904;8.110;2022-11-02T00:57:51;10.00;99.90
21772;DHT22;11047;47.904;8.110;2022-11-02T01:00:19;10.00;99.90
21772;DHT22;11047;47.904;8.110;2022-11-02T01:02:46;10.00;99.90
21772;DHT22;11047;47.904;8.110;2022-11-02T01:05:13;10.00;99.90
21772;DHT22;11047;47.904;8.110;2022-11-02T01:07:40;10.00;99.90
21772;DHT22;11047;47.904;8.110;2022-11-02T01:10:08;9.90;99.90
21772;DHT22;11047;47.904;8.110;2022-11-02T01:12:35;9.80;99.90
21772;DHT22;11047;47.904;8.110;2022-11-02T01:15:05;9.80;99.90
21772;DHT22;11047;47.904;8.110;2022-11-02T01:17:32;9.80;99.90
21772;DHT22;11047;47.904;8.110;2022-11-02T01:19:59;9.70;99.90
21772;DHT22;11047;47.904;8.110;2022-11-02T01:22:26;9.70;99.90
21772;DHT22;11047;47.904;8.110;2022-11-02T01:24:53;9.60;99.90
21772;DHT22;11047;47.904;8.110;2022-11-02T01:27:20;9.70;99.90
21772;DHT22;11047;47.904;8.110;2022-11-02T01:29:47;9.50;99.90
21772;DHT22;11047;47.904;8.110;2022-11-02T01:32:15;9.50;99.90
21772;DHT22;11047;47.904;8.110;2022-11-02T01:34:42;9.60;99.90
21772;DHT22;11047;47.904;8.110;2022-11-02T01:37:09;9.70;99.90
21772;DHT22;11047;47.904;8.110;2022-11-02T01:39:36;9.70;99.90
21772;DHT22;11047;47.904;8.110;2022-11-02T01:42:04;9.70;99.90
21772;DHT22;11047;47.904;8.110;2022-11-02T01:44:41;9.70;99.90
21772;DHT22;11047;47.904;8.110;2022-11-02T01:47:13;9.70;99.90
21772;DHT22;11047;47.904;8.110;2022-11-02T01:49:45;9.70;99.90
21772;DHT22;11047;47.904;8.110;2022-11-02T01:52:15;9.70;99.90
21772;DHT22;11047;47.904;8.110;2022-11-02T01:54:47;9.60;99.90
21772;DHT22;11047;47.904;8.110;2022-11-02T01:57:18;9.60;99.90
21772;DHT22;11047;47.904;8.110;2022-11-02T01:59:49;9.60;99.90
21772;DHT22;11047;47.904;8.110;2022-11-02T02:02:19;9.70;99.90
21772;DHT22;11047;47.904;8.110;2022-11-02T02:04:51;9.70;99.90
21772;DHT22;11047;47.904;8.110;2022-11-02T02:07:19;9.70;99.90
21772;DHT22;11047;47.904;8.110;2022-11-02T02:09:49;9.80;99.90
21772;DHT22;11047;47.904;8.110;2022-11-02T02:12:17;9.80;99.90
21772;DHT22;11047;47.904;8.110;2022-11-02T02:14:44;9.80;99.90
21772;DHT22;11047;47.904;8.110;2022-11-02T02:17:25;9.90;99.90
21772;DHT22;11047;47.904;8.110;2022-11-02T02:19:59;10.00;99.90
21772;DHT22;11047;47.904;8.110;2022-11-02T02:23:02;10.00;99.90
21772;DHT22;11047;47.904;8.110;2022-11-02T02:25:52;9.90;99.90
21772;DHT22;11047;47.904;8.110;2022-11-02T02:28:29;10.00;99.90
21772;DHT22;11047;47.904;8.110;2022-11-02T02:31:04;10.00;99.90
21772;DHT22;11047;47.904;8.110;2022-11-02T02:33:37;10.00;99.90
21772;DHT22;11047;47.904;8.110;2022-11-02T02:36:10;10.00;99.90
21772;DHT22;11047;47.904;8.110;2022-11-02T02:38:43;10.00;99.90
21772;DHT22;11047;47.904;8.110;2022-11-02T02:41:15;10.00;99.90
21772;DHT22;11047;47.904;8.110;2022-11-02T02:43:49;10.00;99.90
21772;DHT22;11047;47.904;8.110;2022-11-02T02:46:20;9.90;99.90
21772;DHT22;11047;47.904;8.110;2022-11-02T02:48:51;9.90;99.90
21772;DHT22;11047;47.904;8.110;2022-11-02T02:51:21;9.80;99.90
21772;DHT22;11047;47.904;8.110;2022-11-02T02:53:52;9.80;99.90
21772;DHT22;11047;47.904;8.110;2022-11-02T02:56:21;9.70;99.90
21772;DHT22;11047;47.904;8.110;2022-11-02T02:58:55;9.70;99.90
21772;DHT22;11047;47.904;8.110;2022-11-02T03:01:23;9.60;99.90
21772;DHT22;11047;47.904;8.110;2022-11-02T03:03:51;9.50;99.90
21772;DHT22;11047;47.904;8.110;2022-11-02T03:06:21;9.50;99.90
21772;DHT22;11047;47.904;8.110;2022-11-02T03:09:00;9.50;99.90
21772;DHT22;11047;47.904;8.110;2022-11-02T03:11:28;9.50;99.90
21772;DHT22;11047;47.904;8.110;2022-11-02T03:14:06;9.50;99.90
21772;DHT22;11047;47.904;8.110;2022-11-02T03:16:43;9.40;99.90
21772;DHT22;11047;47.904;8.110;2022-11-02T03:19:18;9.40;99.90
21772;DHT22;11047;47.904;8.110;2022-11-02T03:21:47;9.40;99.90
21772;DHT22;11047;47.904;8.110;2022-11-02T03:24:18;9.40;99.90
21772;DHT22;11047;47.904;8.110;2022-11-02T03:26:54;9.40;99.90
21772;DHT22;11047;47.904;8.110;2022-11-02T03:29:32;9.40;99.90
21772;DHT22;11047;47.904;8.110;2022-11-02T03:32:04;9.30;99.90
21772;DHT22;11047;47.904;8.110;2022-11-02T03:34:37;9.30;99.90
21772;DHT22;11047;47.904;8.110;2022-11-02T03:37:10;9.30;99.90
21772;DHT22;11047;47.904;8.110;2022-11-02T03:39:40;9.20;99.90
21772;DHT22;11047;47.904;8.110;2022-11-02T03:42:11;9.10;99.90
21772;DHT22;11047;47.904;8.110;2022-11-02T03:44:42;9.10;99.90
21772;DHT22;11047;47.904;8.110;2022-11-02T03:47:12;9.00;99.90
21772;DHT22;11047;47.904;8.110;2022-11-02T03:49:42;9.00;99.90
21772;DHT22;11047;47.904;8.110;2022-11-02T03:52:13;9.00;99.90
21772;DHT22;11047;47.904;8.110;2022-11-02T03:54:44;9.00;99.90
21772;DHT22;11047;47.904;8.110;2022-11-02T03:57:17;9.00;99.90
21772;DHT22;11047;47.904;8.110;2022-11-02T03:59:46;9.00;99.90
21772;DHT22;11047;47.904;8.110;2022-11-02T04:02:14;9.00;99.90
21772;DHT22;11047;47.904;8.110;2022-11-02T04:04:49;9.00;99.90
21772;DHT22;11047;47.904;8.110;2022-11-02T04:07:19;8.90;99.90
21772;DHT22;11047;47.904;8.110;2022-11-02T04:09:47;8.90;99.90
21772;DHT22;11047;47.904;8.110;2022-11-02T04:12:14;9.00;99.90
21772;DHT22;11047;47.904;8.110;2022-11-02T04:15:02;8.90;99.90
21772;DHT22;11047;47.904;8.110;2022-11-02T04:17:29;8.80;99.90
21772;DHT22;11047;47.904;8.110;2022-11-02T04:20:13;8.80;99.90
21772;DHT22;11047;47.904;8.110;2022-11-02T04:22:40;8.80;99.90
21772;DHT22;11047;47.904;8.110;2022-11-02T04:25:24;8.80;99.90
21772;DHT22;11047;47.904;8.110;2022-11-02T04:27:52;8.80;99.90
21772;DHT22;11047;47.904;8.110;2022-11-02T04:30:21;8.80;99.90
21772;DHT22;11047;47.904;8.110;2022-11-02T04:32:49;8.80;99.90
21772;DHT22;11047;47.904;8.110;2022-11-02T04:35:35;8.80;99.90
21772;DHT22;11047;47.904;8.110;2022-11-02T04:38:02;8.70;99.90
21772;DHT22;11047;47.904;8.110;2022-11-02T04:40:46;8.70;99.90
21772;DHT22;11047;47.904;8.110;2022-11-02T04:43:15;8.70;99.90
21772;DHT22;11047;47.904;8.110;2022-11-02T04:45:43;8.70;99.90
21772;DHT22;11047;47.904;8.110;2022-11-02T04:48:10;8.70;99.90
21772;DHT22;11047;47.904;8.110;2022-11-02T04:50:37;8.80;99.90
21772;DHT22;11047;47.904;8.110;2022-11-02T04:53:05;8.70;99.90
21772;DHT22;11047;47.904;8.110;2022-11-02T04:55:33;8.80;99.90
21772;DHT22;11047;47.904;8.110;2022-11-02T04:58:00;8.90;99.90
21772;DHT22;11047;47.904;8.110;2022-11-02T05:00:27;9.20;99.90
21772;DHT22;11047;47.904;8.110;2022-11-02T05:02:55;9.10;99.90
21772;DHT22;11047;47.904;8.110;2022-11-02T05:05:22;9.20;99.90
21772;DHT22;11047;47.904;8.110;2022-11-02T05:07:49;9.30;99.90
21772;DHT22;11047;47.904;8.110;2022-11-02T05:10:16;9.30;99.90
21772;DHT22;11047;47.904;8.110;2022-11-02T05:12:44;9.30;99.90
21772;DHT22;11047;47.904;8.110;2022-11-02T05:15:10;9.30;99.90
21772;DHT22;11047;47.904;8.110;2022-11-02T05:17:37;9.40;99.90
21772;DHT22;11047;47.904;8.110;2022-11-02T05:20:06;9.40;99.90
21772;DHT22;11047;47.904;8.110;2022-11-02T05:22:33;9.40;99.90
21772;DHT22;11047;47.904;8.110;2022-11-02T05:25:00;9.40;99.90
21772;DHT22;11047;47.904;8.110;2022-11-02T05:27:27;9.50;99.90
21772;DHT22;11047;47.904;8.110;2022-11-02T05:29:54;9.50;99.90
21772;DHT22;11047;47.904;8.110;2022-11-02T05:32:20;9.50;99.90
21772;DHT22;11047;47.904;8.110;2022-11-02T05:34:47;9.50;99.90
21772;DHT22;11047;47.904;8.110;2022-11-02T05:37:16;9.50;99.90
21772;DHT22;11047;47.904;8.110;2022-11-02T05:39:42;9.50;99.90
21772;DHT22;11047;47.904;8.110;2022-11-02T05:42:09;9.50;99.90
21772;DHT22;11047;47.904;8.110;2022-11-02T05:44:36;9.50;99.90
21772;DHT22;11047;47.904;8.110;2022-11-02T05:47:03;9.50;99.90
21772;DHT22;11047;47.904;8.110;2022-11-02T05:49:30;9.50;99.90
21772;DHT22;11047;47.904;8.110;2022-11-02T05:51:57;9.60;99.90
21772;DHT22;11047;47.904;8.110;2022-11-02T05:54:26;9.50;99.90
21772;DHT22;11047;47.904;8.110;2022-11-02T05:56:53;9.60;99.90
21772;DHT22;11047;47.904;8.110;2022-11-02T05:59:20;9.60;99.90
21772;DHT22;11047;47.904;8.110;2022-11-02T06:01:47;9.60;99.90
21772;DHT22;11047;47.904;8.110;2022-11-02T06:04:14;9.60;99.90
21772;DHT22;11047;47.904;8.110;2022-11-02T06:06:41;9.60;99.90
21772;DHT22;11047;47.904;8.110;2022-11-02T06:09:08;9.60;99.90
21772;DHT22;11047;47.904;8.110;2022-11-02T06:11:36;9.60;99.90
21772;DHT22;11047;47.904;8.110;2022-11-02T06:14:03;9.60;99.90
21772;DHT22;11047;47.904;8.110;2022-11-02T06:16:30;9.60;99.90
21772;DHT22;11047;47.904;8.110;2022-11-02T06:18:57;9.60;99.90
21772;DHT22;11047;47.904;8.110;2022-11-02T06:21:24;9.50;99.90
21772;DHT22;11047;47.904;8.110;2022-11-02T06:23:51;9.50;99.90
21772;DHT22;11047;47.904;8.110;2022-11-02T06:26:17;9.50;99.90
21772;DHT22;11047;47.904;8.110;2022-11-02T06:28:46;9.50;99.90
21772;DHT22;11047;47.904;8.110;2022-11-02T06:31:13;9.50;99.90
21772;DHT22;11047;47.904;8.110;2022-11-02T06:33:42;9.50;99.90
21772;DHT22;11047;47.904;8.110;2022-11-02T06:36:09;9.50;99.90
21772;DHT22;11047;47.904;8.110;2022-11-02T06:38:36;9.50;99.90
21772;DHT22;11047;47.904;8.110;2022-11-02T06:41:04;9.60;99.90
21772;DHT22;11047;47.904;8.110;2022-11-02T06:43:32;9.50;99.90
21772;DHT22;11047;47.904;8.110;2022-11-02T06:46:02;9.50;99.90
21772;DHT22;11047;47.904;8.110;2022-11-02T06:48:30;9.50;99.90
21772;DHT22;11047;47.904;8.110;2022-11-02T06:50:57;9.50;99.90
21772;DHT22;11047;47.904;8.110;2022-11-02T06:53:24;9.50;99.90
21772;DHT22;11047;47.904;8.110;2022-11-02T06:55:52;9.50;99.90
21772;DHT22;11047;47.904;8.110;2022-11-02T06:58:19;9.60;99.90
21772;DHT22;11047;47.904;8.110;2022-11-02T07:00:47;9.50;99.90
21772;DHT22;11047;47.904;8.110;2022-11-02T07:03:15;9.50;99.90
21772;DHT22;11047;47.904;8.110;2022-11-02T07:05:49;9.50;99.90
21772;DHT22;11047;47.904;8.110;2022-11-02T07:08:17;9.60;99.90
21772;DHT22;11047;47.904;8.110;2022-11-02T07:10:44;9.60;99.90
21772;DHT22;11047;47.904;8.110;2022-11-02T07:13:11;9.60;99.90
21772;DHT22;11047;47.904;8.110;2022-11-02T07:15:38;9.60;99.90
21772;DHT22;11047;47.904;8.110;2022-11-02T07:18:05;9.60;99.90
21772;DHT22;11047;47.904;8.110;2022-11-02T07:20:35;9.70;99.90
21772;DHT22;11047;47.904;8.110;2022-11-02T07:23:03;9.70;99.90
21772;DHT22;11047;47.904;8.110;2022-11-02T07:25:31;9.70;99.90
21772;DHT22;11047;47.904;8.110;2022-11-02T07:27:59;9.70;99.90
21772;DHT22;11047;47.904;8.110;2022-11-02T07:30:27;9.70;99.90
21772;DHT22;11047;47.904;8.110;2022-11-02T07:32:54;9.70;99.90
21772;DHT22;11047;47.904;8.110;2022-11-02T07:35:21;9.80;99.90
21772;DHT22;11047;47.904;8.110;2022-11-02T07:37:56;9.80;99.90
21772;DHT22;11047;47.904;8.110;2022-11-02T07:40:26;9.80;99.90
21772;DHT22;11047;47.904;8.110;2022-11-02T07:42:53;9.90;99.90
21772;DHT22;11047;47.904;8.110;2022-11-02T07:45:20;9.90;99.90
21772;DHT22;11047;47.904;8.110;2022-11-02T07:47:48;9.90;99.90
21772;DHT22;11047;47.904;8.110;2022-11-02T07:50:18;10.00;99.90
21772;DHT22;11047;47.904;8.110;2022-11-02T07:52:46;10.00;99.90
21772;DHT22;11047;47.904;8.110;2022-11-02T07:55:17;10.10;99.90
21772;DHT22;11047;47.904;8.110;2022-11-02T07:57:52;10.10;99.90
21772;DHT22;11047;47.904;8.110;2022-11-02T08:00:19;10.10;99.90
21772;DHT22;11047;47.904;8.110;2022-11-02T08:02:46;10.00;99.90
21772;DHT22;11047;47.904;8.110;2022-11-02T08:05:13;10.00;99.90
21772;DHT22;11047;47.904;8.110;2022-11-02T08:07:40;10.00;99.90
21772;DHT22;11047;47.904;8.110;2022-11-02T08:10:08;10.00;99.90
21772;DHT22;11047;47.904;8.110;2022-11-02T08:12:37;10.00;99.90
21772;DHT22;11047;47.904;8.110;2022-11-02T08:15:04;10.00;99.90
21772;DHT22;11047;47.904;8.110;2022-11-02T08:17:31;10.10;99.90
21772;DHT22;11047;47.904;8.110;2022-11-02T08:19:58;10.00;99.90
21772;DHT22;11047;47.904;8.110;2022-11-02T08:22:25;10.10;99.90
21772;DHT22;11047;47.904;8.110;2022-11-02T08:24:52;10.10;99.90
21772;DHT22;11047;47.904;8.110;2022-11-02T08:27:19;10.20;99.90
21772;DHT22;11047;47.904;8.110;2022-11-02T08:29:47;10.20;99.90
21772;DHT22;11047;47.904;8.110;2022-11-02T08:32:14;10.20;99.90
21772;DHT22;11047;47.904;8.110;2022-11-02T08:34:41;10.20;99.90
21772;DHT22;11047;47.904;8.110;2022-11-02T08:37:08;10.30;99.90
21772;DHT22;11047;47.904;8.110;2022-11-02T08:39:35;10.30;99.90
21772;DHT22;11047;47.904;8.110;2022-11-02T08:42:02;10.30;99.90
21772;DHT22;11047;47.904;8.110;2022-11-02T08:44:29;10.50;99.90
21772;DHT22;11047;47.904;8.110;2022-11-02T08:46:57;10.60;99.90
21772;DHT22;11047;47.904;8.110;2022-11-02T08:49:24;10.50;99.90
21772;DHT22;11047;47.904;8.110;2022-11-02T08:51:51;10.50;99.90
21772;DHT22;11047;47.904;8.110;2022-11-02T08:54:18;10.50;99.90
21772;DHT22;11047;47.904;8.110;2022-11-02T08:56:44;10.60;99.90
21772;DHT22;11047;47.904;8.110;2022-11-02T08:59:11;10.70;99.90
21772;DHT22;11047;47.904;8.110;2022-11-02T09:01:38;10.90;99.90
21772;DHT22;11047;47.904;8.110;2022-11-02T09:04:07;10.80;99.90
21772;DHT22;11047;47.904;8.110;2022-11-02T09:06:34;10.80;99.90
21772;DHT22;11047;47.904;8.110;2022-11-02T09:09:01;11.00;99.90
21772;DHT22;11047;47.904;8.110;2022-11-02T09:11:28;11.10;99.90
21772;DHT22;11047;47.904;8.110;2022-11-02T09:13:55;11.10;99.90
21772;DHT22;11047;47.904;8.110;2022-11-02T09:16:22;10.90;99.90
21772;DHT22;11047;47.904;8.110;2022-11-02T09:18:48;10.90;99.90
21772;DHT22;11047;47.904;8.110;2022-11-02T09:21:17;10.90;99.90
21772;DHT22;11047;47.904;8.110;2022-11-02T09:23:44;10.90;99.90
21772;DHT22;11047;47.904;8.110;2022-11-02T09:26:13;11.00;99.90
21772;DHT22;11047;47.904;8.110;2022-11-02T09:28:39;11.00;99.90
21772;DHT22;11047;47.904;8.110;2022-11-02T09:31:06;11.00;99.90
21772;DHT22;11047;47.904;8.110;2022-11-02T09:33:33;11.00;99.90
21772;DHT22;11047;47.904;8.110;2022-11-02T09:36:02;11.10;99.90
21772;DHT22;11047;47.904;8.110;2022-11-02T09:38:31;11.10;99.90
21772;DHT22;11047;47.904;8.110;2022-11-02T09:41:09;11.10;99.90
21772;DHT22;11047;47.904;8.110;2022-11-02T09:43:47;11.00;99.90
21772;DHT22;11047;47.904;8.110;2022-11-02T09:46:19;11.20;99.90
21772;DHT22;11047;47.904;8.110;2022-11-02T09:48:49;11.30;99.90
21772;DHT22;11047;47.904;8.110;2022-11-02T09:51:19;11.20;99.90
21772;DHT22;11047;47.904;8.110;2022-11-02T09:53:54;11.20;99.90
21772;DHT22;11047;47.904;8.110;2022-11-02T09:56:22;11.10;99.90
21772;DHT22;11047;47.904;8.110;2022-11-02T09:58:55;11.30;99.90
21772;DHT22;11047;47.904;8.110;2022-11-02T10:01:31;11.00;99.90
21772;DHT22;11047;47.904;8.110;2022-11-02T10:06:59;11.30;99.90
21772;DHT22;11047;47.904;8.110;2022-11-02T10:09:34;11.40;99.90
21772;DHT22;11047;47.904;8.110;2022-11-02T10:12:11;11.70;99.90
21772;DHT22;11047;47.904;8.110;2022-11-02T10:14:45;11.80;99.90
21772;DHT22;11047;47.904;8.110;2022-11-02T10:17:17;12.00;99.90
21772;DHT22;11047;47.904;8.110;2022-11-02T10:19:50;12.20;99.90
21772;DHT22;11047;47.904;8.110;2022-11-02T10:22:21;12.20;99.90
21772;DHT22;11047;47.904;8.110;2022-11-02T10:24:52;12.40;99.90
21772;DHT22;11047;47.904;8.110;2022-11-02T10:27:24;12.50;99.90
21772;DHT22;11047;47.904;8.110;2022-11-02T10:29:55;12.50;99.90
21772;DHT22;11047;47.904;8.110;2022-11-02T10:32:23;12.40;99.90
21772;DHT22;11047;47.904;8.110;2022-11-02T10:34:50;12.40;99.90
21772;DHT22;11047;47.904;8.110;2022-11-02T10:37:28;12.30;99.90
21772;DHT22;11047;47.904;8.110;2022-11-02T10:40:06;12.40;99.90
21772;DHT22;11047;47.904;8.110;2022-11-02T10:42:58;12.50;99.90
21772;DHT22;11047;47.904;8.110;2022-11-02T10:45:52;12.50;99.90
21772;DHT22;11047;47.904;8.110;2022-11-02T10:48:29;12.50;99.90
21772;DHT22;11047;47.904;8.110;2022-11-02T10:51:05;12.50;99.90
21772;DHT22;11047;47.904;8.110;2022-11-02T10:53:34;12.60;99.90
21772;DHT22;11047;47.904;8.110;2022-11-02T10:56:09;12.70;99.90
21772;DHT22;11047;47.904;8.110;2022-11-02T10:58:42;12.60;99.90
21772;DHT22;11047;47.904;8.110;2022-11-02T11:01:11;12.50;99.90
21772;DHT22;11047;47.904;8.110;2022-11-02T11:04:03;12.40;99.90
21772;DHT22;11047;47.904;8.110;2022-11-02T11:06:33;12.50;99.90
21772;DHT22;11047;47.904;8.110;2022-11-02T11:09:03;12.60;99.90
21772;DHT22;11047;47.904;8.110;2022-11-02T11:11:35;12.70;99.90
21772;DHT22;11047;47.904;8.110;2022-11-02T11:14:04;12.50;99.90
21772;DHT22;11047;47.904;8.110;2022-11-02T11:16:35;12.40;99.90
21772;DHT22;11047;47.904;8.110;2022-11-02T11:19:04;12.20;99.90
21772;DHT22;11047;47.904;8.110;2022-11-02T11:21:38;12.30;99.90
21772;DHT22;11047;47.904;8.110;2022-11-02T11:24:27;12.40;99.90
21772;DHT22;11047;47.904;8.110;2022-11-02T11:27:13;12.70;99.90
21772;DHT22;11047;47.904;8.110;2022-11-02T11:29:46;12.60;99.90
21772;DHT22;11047;47.904;8.110;2022-11-02T11:32:15;12.60;99.90
21772;DHT22;11047;47.904;8.110;2022-11-02T11:34:46;12.50;99.90
21772;DHT22;11047;47.904;8.110;2022-11-02T11:37:16;12.80;99.90
21772;DHT22;11047;47.904;8.110;2022-11-02T11:39:44;12.80;99.90
21772;DHT22;11047;47.904;8.110;2022-11-02T11:42:19;12.90;99.90
21772;DHT22;11047;47.904;8.110;2022-11-02T11:44:55;13.20;99.90
21772;DHT22;11047;47.904;8.110;2022-11-02T11:47:25;13.30;99.90
21772;DHT22;11047;47.904;8.110;2022-11-02T11:49:53;13.40;99.90
21772;DHT22;11047;47.904;8.110;2022-11-02T11:52:23;13.30;99.90
21772;DHT22;11047;47.904;8.110;2022-11-02T11:54:53;13.40;99.90
21772;DHT22;11047;47.904;8.110;2022-11-02T11:57:31;13.50;99.90
21772;DHT22;11047;47.904;8.110;2022-11-02T12:00:00;13.40;99.90
21772;DHT22;11047;47.904;8.110;2022-11-02T12:02:31;13.50;99.90
21772;DHT22;11047;47.904;8.110;2022-11-02T12:05:10;13.40;99.90
21772;DHT22;11047;47.904;8.110;2022-11-02T12:10:50;13.30;99.90
21772;DHT22;11047;47.904;8.110;2022-11-02T12:13:36;13.20;99.90
21772;DHT22;11047;47.904;8.110;2022-11-02T12:16:13;13.20;99.90
21772;DHT22;11047;47.904;8.110;2022-11-02T12:19:03;13.30;99.90
21772;DHT22;11047;47.904;8.110;2022-11-02T12:21:47;13.30;99.90
21772;DHT22;11047;47.904;8.110;2022-11-02T12:24:37;13.40;99.90
21772;DHT22;11047;47.904;8.110;2022-11-02T12:27:19;13.50;99.90
21772;DHT22;11047;47.904;8.110;2022-11-02T12:33:02;13.40;99.90
21772;DHT22;11047;47.904;8.110;2022-11-02T12:35:49;13.60;99.90
21772;DHT22;11047;47.904;8.110;2022-11-02T12:38:33;13.70;99.90
21772;DHT22;11047;47.904;8.110;2022-11-02T12:41:08;13.60;99.90
21772;DHT22;11047;47.904;8.110;2022-11-02T12:43:39;13.90;99.90
21772;DHT22;11047;47.904;8.110;2022-11-02T12:46:19;14.00;99.90
21772;DHT22;11047;47.904;8.110;2022-11-02T12:48:56;14.00;99.90
21772;DHT22;11047;47.904;8.110;2022-11-02T12:51:31;13.70;99.90
21772;DHT22;11047;47.904;8.110;2022-11-02T12:54:08;13.90;99.90
21772;DHT22;11047;47.904;8.110;2022-11-02T12:56:43;13.90;99.90
21772;DHT22;11047;47.904;8.110;2022-11-02T12:59:16;13.70;99.90
21772;DHT22;11047;47.904;8.110;2022-11-02T13:01:46;13.30;99.90
21772;DHT22;11047;47.904;8.110;2022-11-02T13:04:19;13.00;99.90
21772;DHT22;11047;47.904;8.110;2022-11-02T13:06:49;12.90;99.90
21772;DHT22;11047;47.904;8.110;2022-11-02T13:09:21;13.00;99.90
21772;DHT22;11047;47.904;8.110;2022-11-02T13:11:52;12.90;99.90
21772;DHT22;11047;47.904;8.110;2022-11-02T13:14:23;12.70;99.90
21772;DHT22;11047;47.904;8.110;2022-11-02T13:16:56;12.60;99.90
21772;DHT22;11047;47.904;8.110;2022-11-02T13:19:31;12.70;99.90
21772;DHT22;11047;47.904;8.110;2022-11-02T13:22:02;12.80;99.90
21772;DHT22;11047;47.904;8.110;2022-11-02T13:24:33;13.00;99.90
21772;DHT22;11047;47.904;8.110;2022-11-02T13:27:04;13.10;99.90
21772;DHT22;11047;47.904;8.110;2022-11-02T13:29:38;13.20;99.90
21772;DHT22;11047;47.904;8.110;2022-11-02T13:32:14;13.20;99.90
21772;DHT22;11047;47.904;8.110;2022-11-02T13:34:45;13.50;99.90
21772;DHT22;11047;47.904;8.110;2022-11-02T13:37:16;13.50;99.90
21772;DHT22;11047;47.904;8.110;2022-11-02T13:39:47;13.70;99.90
21772;DHT22;11047;47.904;8.110;2022-11-02T13:45:30;13.60;99.90
21772;DHT22;11047;47.904;8.110;2022-11-02T13:51:04;13.40;99.90
21772;DHT22;11047;47.904;8.110;2022-11-02T13:53:36;13.40;99.90
21772;DHT22;11047;47.904;8.110;2022-11-02T13:56:07;13.40;99.90
21772;DHT22;11047;47.904;8.110;2022-11-02T13:58:38;13.50;99.90
21772;DHT22;11047;47.904;8.110;2022-11-02T14:01:08;13.40;99.90
21772;DHT22;11047;47.904;8.110;2022-11-02T14:03:46;13.40;99.90
21772;DHT22;11047;47.904;8.110;2022-11-02T14:06:22;13.20;99.90
21772;DHT22;11047;47.904;8.110;2022-11-02T14:08:53;13.10;99.90
21772;DHT22;11047;47.904;8.110;2022-11-02T14:11:33;13.10;99.90
21772;DHT22;11047;47.904;8.110;2022-11-02T14:14:22;13.00;99.90
21772;DHT22;11047;47.904;8.110;2022-11-02T14:17:12;13.20;99.90
21772;DHT22;11047;47.904;8.110;2022-11-02T14:19:52;13.10;99.90
21772;DHT22;11047;47.904;8.110;2022-11-02T14:22:20;13.00;99.90
21772;DHT22;11047;47.904;8.110;2022-11-02T14:25:03;12.90;99.90
21772;DHT22;11047;47.904;8.110;2022-11-02T14:27:36;12.90;99.90
21772;DHT22;11047;47.904;8.110;2022-11-02T14:30:04;12.70;99.90
21772;DHT22;11047;47.904;8.110;2022-11-02T14:32:49;12.60;99.90
21772;DHT22;11047;47.904;8.110;2022-11-02T14:35:39;12.50;99.90
21772;DHT22;11047;47.904;8.110;2022-11-02T14:38:30;12.50;99.90
21772;DHT22;11047;47.904;8.110;2022-11-02T14:41:20;12.40;99.90
21772;DHT22;11047;47.904;8.110;2022-11-02T14:43:59;12.20;99.90
21772;DHT22;11047;47.904;8.110;2022-11-02T14:46:37;12.00;99.90
21772;DHT22;11047;47.904;8.110;2022-11-02T14:49:17;11.80;99.90
21772;DHT22;11047;47.904;8.110;2022-11-02T14:51:55;11.80;99.90
21772;DHT22;11047;47.904;8.110;2022-11-02T14:54:23;11.70;99.90
21772;DHT22;11047;47.904;8.110;2022-11-02T14:56:52;11.60;99.90
21772;DHT22;11047;47.904;8.110;2022-11-02T14:59:24;11.50;99.90
21772;DHT22;11047;47.904;8.110;2022-11-02T15:01:55;11.50;99.90
21772;DHT22;11047;47.904;8.110;2022-11-02T15:04:24;11.50;99.90
21772;DHT22;11047;47.904;8.110;2022-11-02T15:06:56;11.40;99.90
21772;DHT22;11047;47.904;8.110;2022-11-02T15:09:50;11.40;99.90
21772;DHT22;11047;47.904;8.110;2022-11-02T15:12:34;11.40;99.90
21772;DHT22;11047;47.904;8.110;2022-11-02T15:18:21;11.20;99.90
21772;DHT22;11047;47.904;8.110;2022-11-02T15:24:05;10.80;99.90
21772;DHT22;11047;47.904;8.110;2022-11-02T15:26:40;10.70;99.90
21772;DHT22;11047;47.904;8.110;2022-11-02T15:29:15;10.60;99.90
21772;DHT22;11047;47.904;8.110;2022-11-02T15:31:55;10.70;99.90
21772;DHT22;11047;47.904;8.110;2022-11-02T15:34:30;10.70;99.90
21772;DHT22;11047;47.904;8.110;2022-11-02T15:36:59;10.50;99.90
21772;DHT22;11047;47.904;8.110;2022-11-02T15:39:29;10.30;99.90
21772;DHT22;11047;47.904;8.110;2022-11-02T15:42:03;10.20;99.90
21772;DHT22;11047;47.904;8.110;2022-11-02T15:44:58;10.10;99.90
21772;DHT22;11047;47.904;8.110;2022-11-02T15:47:37;10.10;99.90
21772;DHT22;11047;47.904;8.110;2022-11-02T15:50:28;10.10;99.90
21772;DHT22;11047;47.904;8.110;2022-11-02T15:56:31;10.00;99.90
21772;DHT22;11047;47.904;8.110;2022-11-02T16:02:22;9.70;99.90
21772;DHT22;11047;47.904;8.110;2022-11-02T16:04:51;9.60;99.90
21772;DHT22;11047;47.904;8.110;2022-11-02T16:07:20;9.40;99.90
21772;DHT22;11047;47.904;8.110;2022-11-02T16:09:47;9.30;99.90
21772;DHT22;11047;47.904;8.110;2022-11-02T16:12:17;9.10;99.90
21772;DHT22;11047;47.904;8.110;2022-11-02T16:14:50;9.00;99.90
21772;DHT22;11047;47.904;8.110;2022-11-02T16:17:22;9.10;99.90
21772;DHT22;11047;47.904;8.110;2022-11-02T16:19:50;9.00;99.90
21772;DHT22;11047;47.904;8.110;2022-11-02T16:22:22;8.90;99.90
21772;DHT22;11047;47.904;8.110;2022-11-02T16:24:50;8.80;99.90
21772;DHT22;11047;47.904;8.110;2022-11-02T16:27:20;9.00;99.90
21772;DHT22;11047;47.904;8.110;2022-11-02T16:29:47;8.60;99.90
21772;DHT22;11047;47.904;8.110;2022-11-02T16:32:15;8.70;99.90